createdAt,value
2018-04-27T00:02:17.554Z,99.90
2018-04-27T00:04:45.155Z,99.90
2018-04-27T00:07:12.728Z,99.90
2018-04-27T00:09:40.384Z,99.90
2018-04-27T00:12:08.805Z,99.90
2018-04-27T00:14:36.548Z,99.90
2018-04-27T00:17:04.207Z,99.90
2018-04-27T00:19:31.848Z,99.90
2018-04-27T00:21:59.452Z,99.90
2018-04-27T00:24:27.056Z,99.90
2018-04-27T00:26:54.648Z,99.90
2018-04-27T00:29:23.011Z,99.90
2018-04-27T00:31:50.588Z,99.90
2018-04-27T00:34:19.049Z,99.90
2018-04-27T00:36:46.591Z,99.90
2018-04-27T00:39:14.195Z,99.90
2018-04-27T00:41:41.801Z,99.90
2018-04-27T00:44:09.403Z,99.90
2018-04-27T00:46:36.978Z,99.90
2018-04-27T00:49:05.362Z,99.90
2018-04-27T00:51:33.713Z,99.90
2018-04-27T00:54:01.303Z,99.90
2018-04-27T00:56:28.899Z,99.90
2018-04-27T00:58:57.509Z,99.90
2018-04-27T01:01:25.092Z,99.90
2018-04-27T01:03:52.724Z,99.90
2018-04-27T01:06:20.309Z,99.90
2018-04-27T01:08:47.908Z,99.90
2018-04-27T01:11:15.513Z,99.90
2018-04-27T01:13:43.103Z,99.90
2018-04-27T01:19:02.480Z,99.90
2018-04-27T01:21:30.065Z,99.90
2018-04-27T01:27:03.470Z,99.90
2018-04-27T02:53:05.962Z,99.90
2018-04-27T02:55:33.530Z,99.90
2018-04-27T02:58:01.075Z,99.90
2018-04-27T03:00:29.419Z,99.90
2018-04-27T03:02:56.974Z,99.90
2018-04-27T03:05:24.555Z,99.90
2018-04-27T03:07:52.124Z,99.90
2018-04-27T03:10:19.707Z,99.90
2018-04-27T03:12:47.246Z,99.90
2018-04-27T03:15:14.804Z,99.90
2018-04-27T03:17:42.342Z,99.90
2018-04-27T03:20:09.896Z,99.90
2018-04-27T03:22:37.468Z,99.90
2018-04-27T03:27:39.081Z,99.90
2018-04-27T03:30:06.645Z,99.90
2018-04-27T03:32:34.222Z,99.90
2018-04-27T03:35:02.559Z,99.90
2018-04-27T03:37:30.117Z,99.90
2018-04-27T03:39:57.663Z,99.90
2018-04-27T03:42:25.247Z,99.90
2018-04-27T03:44:52.797Z,99.90
2018-04-27T03:47:20.362Z,99.90
2018-04-27T03:49:47.913Z,99.90
2018-04-27T03:52:15.499Z,99.90
2018-04-27T03:54:43.057Z,99.90
2018-04-27T03:57:10.624Z,99.90
2018-04-27T03:59:50.085Z,99.90
2018-04-27T04:02:30.227Z,99.90
2018-04-27T04:05:10.335Z,99.90
2018-04-27T04:07:37.903Z,99.90
2018-04-27T04:10:05.451Z,99.90
2018-04-27T04:12:33.027Z,99.90
2018-04-27T04:15:00.565Z,99.90
2018-04-27T04:17:28.153Z,99.90
2018-04-27T04:22:29.593Z,99.90
2018-04-27T04:24:57.868Z,99.90
2018-04-27T04:27:25.447Z,99.90
2018-04-27T04:29:52.993Z,99.90
2018-04-27T04:32:20.576Z,99.90
2018-04-27T04:34:48.128Z,99.90
2018-04-27T04:37:15.700Z,99.90
2018-04-27T04:39:43.259Z,99.90
2018-04-27T04:42:10.850Z,99.90
2018-04-27T04:44:39.159Z,99.90
2018-04-27T04:47:06.739Z,99.90
2018-04-27T04:49:34.282Z,99.90
2018-04-27T04:52:01.847Z,99.90
2018-04-27T04:54:29.401Z,99.90
2018-04-27T04:56:56.971Z,99.90
2018-04-27T04:59:24.518Z,99.90
2018-04-27T05:01:52.099Z,99.90
2018-04-27T05:04:19.661Z,99.90
2018-04-27T05:06:47.242Z,99.90
2018-04-27T05:09:14.787Z,99.90
2018-04-27T05:11:42.342Z,99.90
2018-04-27T05:14:09.920Z,99.90
2018-04-27T05:16:37.471Z,99.90
2018-04-27T05:19:05.980Z,99.90
2018-04-27T05:21:34.302Z,99.90
2018-04-27T05:24:01.878Z,99.90
2018-04-27T05:26:29.434Z,99.90
2018-04-27T05:28:57.011Z,99.90
2018-04-27T05:31:25.500Z,99.90
2018-04-27T05:33:53.083Z,99.90
2018-04-27T05:36:20.638Z,99.90
2018-04-27T05:38:48.986Z,99.90
2018-04-27T05:41:16.543Z,99.90
2018-04-27T05:43:44.104Z,99.90
2018-04-27T05:46:11.676Z,99.90
2018-04-27T05:48:39.239Z,99.90
2018-04-27T05:51:06.773Z,99.90
2018-04-27T05:53:34.338Z,99.90
2018-04-27T05:56:01.888Z,99.90
2018-04-27T05:58:29.455Z,99.90
2018-04-27T06:00:57.003Z,99.90
2018-04-27T06:03:24.579Z,99.90
2018-04-27T06:05:52.128Z,99.90
2018-04-27T06:08:19.714Z,99.90
2018-04-27T06:10:47.255Z,99.90
2018-04-27T06:13:14.849Z,99.90
2018-04-27T06:15:43.162Z,99.70
2018-04-27T06:18:10.745Z,99.70
2018-04-27T06:20:38.279Z,99.60
2018-04-27T06:23:05.851Z,99.70
2018-04-27T06:25:33.386Z,99.40
2018-04-27T06:28:00.963Z,99.30
2018-04-27T06:30:28.493Z,99.00
2018-04-27T06:32:56.823Z,98.70
2018-04-27T06:35:24.365Z,98.70
2018-04-27T06:37:51.920Z,98.50
2018-04-27T06:40:19.488Z,98.40
2018-04-27T06:42:47.028Z,98.40
2018-04-27T06:45:14.648Z,97.90
2018-04-27T06:47:42.169Z,97.80
2018-04-27T06:50:09.737Z,97.50
2018-04-27T06:52:37.279Z,97.20
2018-04-27T06:55:04.843Z,96.70
2018-04-27T06:57:32.394Z,96.30
2018-04-27T06:59:59.961Z,95.80
2018-04-27T07:02:27.524Z,95.40
2018-04-27T07:04:55.096Z,94.80
2018-04-27T07:07:22.650Z,94.50
2018-04-27T07:09:50.211Z,94.30
2018-04-27T07:12:17.768Z,93.80
2018-04-27T07:14:45.364Z,93.40
2018-04-27T07:17:12.911Z,93.20
2018-04-27T07:19:40.492Z,92.80
2018-04-27T07:22:08.813Z,92.00
2018-04-27T07:24:36.395Z,92.00
2018-04-27T07:27:03.940Z,91.40
2018-04-27T07:29:31.517Z,91.10
2018-04-27T07:31:59.062Z,90.70
2018-04-27T07:34:26.636Z,88.50
2018-04-27T07:36:54.187Z,84.70
2018-04-27T07:39:21.758Z,82.80
2018-04-27T07:41:49.311Z,79.10
2018-04-27T07:44:16.910Z,76.10
2018-04-27T07:46:45.210Z,71.90
2018-04-27T07:49:12.791Z,71.90
2018-04-27T07:51:40.413Z,71.60
2018-04-27T07:54:08.030Z,67.70
2018-04-27T07:56:35.676Z,67.80
2018-04-27T07:59:03.304Z,64.40
2018-04-27T08:01:30.878Z,63.80
2018-04-27T08:03:58.434Z,64.10
2018-04-27T08:06:26.927Z,63.10
2018-04-27T08:08:54.511Z,60.70
2018-04-27T08:11:22.077Z,59.90
2018-04-27T08:13:49.681Z,58.80
2018-04-27T08:16:18.012Z,57.00
2018-04-27T08:18:45.606Z,57.00
2018-04-27T08:21:13.973Z,53.80
2018-04-27T08:23:42.291Z,52.80
2018-04-27T08:26:09.851Z,52.80
2018-04-27T08:28:37.399Z,52.50
2018-04-27T08:31:05.003Z,52.40
2018-04-27T08:33:32.556Z,51.80
2018-04-27T08:36:00.131Z,51.30
2018-04-27T08:38:27.675Z,50.40
2018-04-27T08:40:55.239Z,50.20
2018-04-27T08:43:22.809Z,49.90
2018-04-27T08:45:50.375Z,49.30
2018-04-27T08:48:17.935Z,49.10
2018-04-27T08:50:45.515Z,49.30
2018-04-27T08:53:13.828Z,49.20
2018-04-27T08:55:41.395Z,48.60
2018-04-27T08:58:08.962Z,47.90
2018-04-27T09:00:36.534Z,47.30
2018-04-27T09:03:04.082Z,47.20
2018-04-27T09:05:31.655Z,48.00
2018-04-27T09:07:59.204Z,47.10
2018-04-27T09:10:26.807Z,46.70
2018-04-27T09:12:54.382Z,45.90
2018-04-27T09:15:22.697Z,45.60
2018-04-27T09:17:50.280Z,45.50
2018-04-27T09:20:17.830Z,46.80
2018-04-27T09:22:45.399Z,46.70
2018-04-27T09:25:13.711Z,46.30
2018-04-27T09:27:42.047Z,46.70
2018-04-27T09:30:09.607Z,46.60
2018-04-27T09:32:37.166Z,46.70
2018-04-27T09:35:04.706Z,45.50
2018-04-27T09:37:32.267Z,45.80
2018-04-27T09:39:59.829Z,45.80
2018-04-27T09:42:27.411Z,46.00
2018-04-27T09:44:54.950Z,46.60
2018-04-27T09:47:22.539Z,45.90
2018-04-27T09:49:50.088Z,45.80
2018-04-27T09:52:17.654Z,45.70
2018-04-27T09:54:45.206Z,45.10
2018-04-27T09:57:12.771Z,45.10
2018-04-27T09:59:40.322Z,45.40
2018-04-27T10:02:07.899Z,45.90
2018-04-27T10:04:35.443Z,46.20
2018-04-27T10:07:03.007Z,45.90
2018-04-27T10:09:30.547Z,45.50
2018-04-27T10:11:58.114Z,44.80
2018-04-27T10:14:25.656Z,44.40
2018-04-27T10:16:53.234Z,44.30
2018-04-27T10:19:20.784Z,44.30
2018-04-27T10:21:48.375Z,45.60
2018-04-27T10:24:15.917Z,45.60
2018-04-27T10:26:43.487Z,44.50
2018-04-27T10:29:11.026Z,44.30
2018-04-27T10:31:38.596Z,44.50
2018-04-27T10:34:06.165Z,44.40
2018-04-27T10:36:33.756Z,44.00
2018-04-27T10:39:01.319Z,44.20
2018-04-27T10:41:29.635Z,44.00
2018-04-27T10:43:57.208Z,44.10
2018-04-27T10:46:25.514Z,44.90
2018-04-27T10:48:53.883Z,44.70
2018-04-27T10:51:21.417Z,44.70
2018-04-27T10:53:48.985Z,43.90
2018-04-27T10:56:16.540Z,44.60
2018-04-27T10:58:44.114Z,43.50
2018-04-27T11:01:11.667Z,43.60
2018-04-27T11:03:39.248Z,44.20
2018-04-27T11:06:06.786Z,43.30
2018-04-27T11:08:34.375Z,43.70
2018-04-27T11:11:02.032Z,43.20
2018-04-27T11:13:29.566Z,42.90
2018-04-27T11:15:57.128Z,44.00
2018-04-27T11:18:24.704Z,44.30
2018-04-27T11:20:53.037Z,43.20
2018-04-27T11:23:20.604Z,43.20
2018-04-27T11:25:48.159Z,43.90
2018-04-27T11:28:15.727Z,43.70
2018-04-27T11:30:43.287Z,43.30
2018-04-27T11:33:10.871Z,42.10
2018-04-27T11:35:38.410Z,42.30
2018-04-27T11:38:05.987Z,42.40
2018-04-27T11:40:33.530Z,42.60
2018-04-27T11:43:01.105Z,42.40
2018-04-27T11:45:28.668Z,41.40
2018-04-27T11:47:56.256Z,41.80
2018-04-27T11:50:24.566Z,40.80
2018-04-27T11:52:52.131Z,40.80
2018-04-27T11:55:19.699Z,41.50
2018-04-27T11:57:47.268Z,43.10
2018-04-27T12:00:14.838Z,41.70
2018-04-27T12:02:43.171Z,41.30
2018-04-27T12:05:10.720Z,41.20
2018-04-27T12:07:39.052Z,41.10
2018-04-27T12:10:07.407Z,40.80
2018-04-27T12:12:34.960Z,41.40
2018-04-27T12:15:02.548Z,40.80
2018-04-27T12:17:30.885Z,40.70
2018-04-27T12:19:58.462Z,40.70
2018-04-27T12:22:26.019Z,41.20
2018-04-27T12:24:53.584Z,40.80
2018-04-27T12:27:21.164Z,40.40
2018-04-27T12:29:48.731Z,40.60
2018-04-27T12:32:16.273Z,40.80
2018-04-27T12:34:43.845Z,41.10
2018-04-27T12:37:11.400Z,40.60
2018-04-27T12:39:38.975Z,40.50
2018-04-27T12:42:06.532Z,40.70
2018-04-27T12:44:34.128Z,41.00
2018-04-27T12:47:02.456Z,41.60
2018-04-27T12:49:30.025Z,41.50
2018-04-27T12:51:57.574Z,40.50
2018-04-27T12:54:25.131Z,39.90
2018-04-27T12:56:52.691Z,40.50
2018-04-27T12:59:20.261Z,40.50
2018-04-27T13:01:47.813Z,39.50
2018-04-27T13:04:15.378Z,38.90
2018-04-27T13:06:42.915Z,40.10
2018-04-27T13:09:10.504Z,38.80
2018-04-27T13:11:38.055Z,39.60
2018-04-27T13:14:05.642Z,39.40
2018-04-27T13:16:33.202Z,40.00
2018-04-27T13:19:00.799Z,39.40
2018-04-27T13:21:28.351Z,39.00
2018-04-27T13:23:55.919Z,38.50
2018-04-27T13:26:23.492Z,38.80
2018-04-27T13:28:51.067Z,38.70
2018-04-27T13:31:18.620Z,39.40
2018-04-27T13:33:46.193Z,38.70
2018-04-27T13:36:13.769Z,37.60
2018-04-27T13:38:41.346Z,38.60
2018-04-27T13:41:08.904Z,39.00
2018-04-27T13:43:37.248Z,37.40
2018-04-27T13:46:04.790Z,37.30
2018-04-27T13:48:32.350Z,37.10
2018-04-27T13:50:59.930Z,37.70
2018-04-27T13:53:28.264Z,38.10
2018-04-27T13:55:55.846Z,38.10
2018-04-27T13:58:23.415Z,37.80
2018-04-27T14:00:50.988Z,37.90
2018-04-27T14:03:18.556Z,38.10
2018-04-27T14:05:46.176Z,37.80
2018-04-27T14:08:13.726Z,38.00
2018-04-27T14:10:41.311Z,37.60
2018-04-27T14:13:08.865Z,37.00
2018-04-27T14:15:36.452Z,37.10
2018-04-27T14:18:04.766Z,36.80
2018-04-27T14:20:33.099Z,37.00
2018-04-27T14:23:00.647Z,36.90
2018-04-27T14:25:29.244Z,36.70
2018-04-27T14:27:57.567Z,36.60
2018-04-27T14:30:25.917Z,37.50
2018-04-27T14:32:53.458Z,37.50
2018-04-27T14:35:21.038Z,36.80
2018-04-27T14:37:48.603Z,37.50
2018-04-27T14:40:16.183Z,37.30
2018-04-27T14:42:44.491Z,36.50
2018-04-27T14:45:12.065Z,36.50
2018-04-27T14:47:39.620Z,36.70
2018-04-27T14:50:07.197Z,37.00
2018-04-27T14:52:34.737Z,36.10
2018-04-27T14:55:02.308Z,36.10
2018-04-27T14:57:29.848Z,36.00
2018-04-27T14:59:57.461Z,36.60
2018-04-27T15:02:25.017Z,35.90
2018-04-27T15:04:52.582Z,35.80
2018-04-27T15:07:20.898Z,36.00
2018-04-27T15:09:48.472Z,36.00
2018-04-27T15:12:17.969Z,35.70
2018-04-27T15:14:45.606Z,35.70
2018-04-27T15:17:13.223Z,35.40
2018-04-27T15:19:41.927Z,35.40
2018-04-27T15:22:09.511Z,35.30
2018-04-27T15:24:37.838Z,35.30
2018-04-27T15:27:05.405Z,35.30
2018-04-27T15:29:32.973Z,35.50
2018-04-27T15:32:00.572Z,36.00
2018-04-27T15:34:28.122Z,36.10
2018-04-27T15:36:56.457Z,35.50
2018-04-27T15:39:24.008Z,35.50
2018-04-27T15:41:51.571Z,35.60
2018-04-27T15:44:20.144Z,35.90
2018-04-27T15:46:47.715Z,35.70
2018-04-27T15:49:15.282Z,36.00
2018-04-27T15:51:42.862Z,35.60
2018-04-27T15:54:10.408Z,36.20
2018-04-27T15:56:37.981Z,35.60
2018-04-27T15:59:05.535Z,36.10
2018-04-27T16:01:33.123Z,35.80
2018-04-27T16:04:01.439Z,34.90
2018-04-27T16:06:30.815Z,34.80
2018-04-27T16:08:59.303Z,34.80
2018-04-27T16:11:26.876Z,33.20
2018-04-27T16:13:55.359Z,32.30
2018-04-27T16:16:23.679Z,31.30
2018-04-27T16:18:52.019Z,30.00
2018-04-27T16:21:19.683Z,29.70
2018-04-27T16:23:47.178Z,29.50
2018-04-27T16:26:30.399Z,28.80
2018-04-27T16:28:57.953Z,28.60
2018-04-27T16:31:25.513Z,28.10
2018-04-27T16:33:53.073Z,27.90
2018-04-27T16:36:20.652Z,27.70
2018-04-27T16:38:48.965Z,27.90
2018-04-27T16:41:16.546Z,27.90
2018-04-27T16:43:44.095Z,28.00
2018-04-27T16:46:11.653Z,28.40
2018-04-27T16:48:39.214Z,28.90
2018-04-27T16:51:06.762Z,28.60
2018-04-27T16:53:34.333Z,28.70
2018-04-27T16:56:01.884Z,28.10
2018-04-27T16:58:29.472Z,27.50
2018-04-27T17:00:57.002Z,27.00
2018-04-27T17:03:24.572Z,27.30
2018-04-27T17:05:52.131Z,28.00
2018-04-27T17:08:19.728Z,28.80
2018-04-27T17:10:47.380Z,28.80
2018-04-27T17:13:15.011Z,28.80
2018-04-27T17:15:42.573Z,29.70
2018-04-27T17:18:10.147Z,29.90
2018-04-27T17:20:37.691Z,31.10
2018-04-27T17:26:08.444Z,31.10
2018-04-27T17:28:36.102Z,31.00
2018-04-27T17:31:04.368Z,31.60
2018-04-27T17:33:31.947Z,31.00
2018-04-27T17:35:59.492Z,32.10
2018-04-27T17:38:27.064Z,32.80
2018-04-27T17:40:54.624Z,34.40
2018-04-27T17:43:22.216Z,38.70
2018-04-27T17:45:49.788Z,41.70
2018-04-27T17:48:18.127Z,43.70
2018-04-27T17:50:45.686Z,43.70
2018-04-27T17:53:13.264Z,46.80
2018-04-27T17:55:40.817Z,48.80
2018-04-27T17:58:09.173Z,49.30
2018-04-27T18:00:36.723Z,49.30
2018-04-27T18:03:04.304Z,50.60
2018-04-27T18:05:31.861Z,50.30
2018-04-27T18:07:59.431Z,51.50
2018-04-27T18:10:26.972Z,53.30
2018-04-27T18:12:54.543Z,53.10
2018-04-27T18:15:22.092Z,52.90
2018-04-27T18:17:49.750Z,54.00
2018-04-27T18:20:17.246Z,55.50
2018-04-27T18:22:44.813Z,55.70
2018-04-27T18:25:13.123Z,57.70
2018-04-27T18:27:40.765Z,57.70
2018-04-27T18:30:08.260Z,56.80
2018-04-27T18:32:35.824Z,57.50
2018-04-27T18:35:03.382Z,57.80
2018-04-27T18:37:30.945Z,56.70
2018-04-27T18:39:58.495Z,57.00
2018-04-27T18:42:26.099Z,54.60
2018-04-27T18:44:53.661Z,53.40
2018-04-27T18:47:21.204Z,53.90
2018-04-27T18:49:48.761Z,50.30
2018-04-27T18:52:16.308Z,49.30
2018-04-27T18:54:43.909Z,49.50
2018-04-27T18:57:12.263Z,43.50
2018-04-27T18:59:42.517Z,43.50
2018-04-27T19:02:10.834Z,42.40
2018-04-27T19:04:38.411Z,42.30
2018-04-27T19:07:05.959Z,42.10
2018-04-27T19:09:33.535Z,42.00
2018-04-27T19:12:01.093Z,40.90
2018-04-27T19:14:28.665Z,40.60
2018-04-27T19:16:56.232Z,40.60
2018-04-27T19:19:23.820Z,40.50
2018-04-27T19:21:52.144Z,40.80
2018-04-27T19:24:19.714Z,40.70
2018-04-27T19:26:47.270Z,42.00
2018-04-27T19:29:14.836Z,41.10
2018-04-27T19:31:42.382Z,41.40
2018-04-27T19:34:10.731Z,40.30
2018-04-27T19:36:38.301Z,40.20
2018-04-27T19:39:05.866Z,40.30
2018-04-27T19:41:33.408Z,40.40
2018-04-27T19:44:00.984Z,40.40
2018-04-27T19:46:28.528Z,40.70
2018-04-27T19:48:56.089Z,41.50
2018-04-27T19:51:23.620Z,42.90
2018-04-27T19:53:51.954Z,43.70
2018-04-27T19:56:19.499Z,43.60
2018-04-27T19:58:47.060Z,43.90
2018-04-27T20:01:14.625Z,46.80
2018-04-27T20:03:42.181Z,46.00
2018-04-27T20:06:09.725Z,47.90
2018-04-27T20:08:37.304Z,47.70
2018-04-27T20:11:04.962Z,47.90
2018-04-27T20:13:32.464Z,48.70
2018-04-27T20:16:00.792Z,49.70
2018-04-27T20:18:29.208Z,49.80
2018-04-27T20:20:59.366Z,50.30
2018-04-27T20:23:44.624Z,50.30
2018-04-27T20:26:12.948Z,52.60
2018-04-27T20:28:40.510Z,52.60
2018-04-27T20:31:08.060Z,53.50
2018-04-27T20:33:35.624Z,52.10
2018-04-27T20:36:03.203Z,53.20
2018-04-27T20:38:31.666Z,53.00
2018-04-27T20:40:59.883Z,54.20
2018-04-27T20:43:27.448Z,53.90
2018-04-27T20:45:56.737Z,54.00
2018-04-27T20:48:25.996Z,53.90
2018-04-27T20:51:02.978Z,54.60
2018-04-27T20:53:33.225Z,54.90
2018-04-27T20:56:02.768Z,55.70
2018-04-27T20:58:31.083Z,56.60
2018-04-27T21:00:58.661Z,56.60
2018-04-27T21:03:26.205Z,55.40
2018-04-27T21:05:53.768Z,57.10
2018-04-27T21:08:21.310Z,57.00
2018-04-27T21:10:48.883Z,57.60
2018-04-27T21:13:16.428Z,57.50
2018-04-27T21:15:43.997Z,57.80
2018-04-27T21:18:22.331Z,57.10
2018-04-27T21:20:49.901Z,56.50
2018-04-27T21:23:17.454Z,57.50
2018-04-27T21:25:45.023Z,57.90
2018-04-27T21:28:14.348Z,58.30
2018-04-27T21:30:44.627Z,57.40
2018-04-27T21:33:12.173Z,57.40
2018-04-27T21:35:49.399Z,57.60
2018-04-27T21:38:33.901Z,58.30
2018-04-27T21:41:02.389Z,58.70
2018-04-27T21:43:29.928Z,58.70
2018-04-27T21:45:58.261Z,60.60
2018-04-27T21:48:35.559Z,60.50
2018-04-27T21:51:03.129Z,60.50
2018-04-27T21:53:30.673Z,59.80
2018-04-27T21:55:58.235Z,60.70
2018-04-27T21:58:29.672Z,61.30
2018-04-27T22:00:57.240Z,61.40
2018-04-27T22:03:24.782Z,61.00
2018-04-27T22:08:56.578Z,61.80
2018-04-27T22:11:26.600Z,62.50
2018-04-27T22:13:54.143Z,65.10
2018-04-27T22:16:26.368Z,65.80
2018-04-27T22:18:54.657Z,66.60
2018-04-27T22:21:22.233Z,66.60
2018-04-27T22:23:49.787Z,66.70
2018-04-27T22:26:17.352Z,67.20
2018-04-27T22:28:44.899Z,68.80
2018-04-27T22:31:12.481Z,70.30
2018-04-27T22:33:40.854Z,70.30
2018-04-27T22:36:30.013Z,72.00
2018-04-27T22:39:09.277Z,72.80
2018-04-27T22:41:36.857Z,73.30
2018-04-27T22:44:14.375Z,76.00
2018-04-27T22:46:42.725Z,76.60
2018-04-27T22:49:11.213Z,76.60
2018-04-27T22:51:39.562Z,78.10
2018-04-27T23:00:55.426Z,77.40
2018-04-27T23:03:32.950Z,77.70
2018-04-27T23:06:00.512Z,77.60
2018-04-27T23:08:28.056Z,78.80
2018-04-27T23:10:57.143Z,80.70
2018-04-27T23:13:35.032Z,80.40
2018-04-27T23:16:03.347Z,80.30
2018-04-27T23:18:46.211Z,79.60
2018-04-27T23:21:40.308Z,81.10
2018-04-27T23:24:09.899Z,82.00
2018-04-27T23:26:37.422Z,85.00
2018-04-27T23:29:04.974Z,85.40
2018-04-27T23:31:32.544Z,86.20
2018-04-27T23:34:00.091Z,86.10
2018-04-27T23:36:27.641Z,86.10
2018-04-27T23:38:55.187Z,86.80
2018-04-27T23:41:23.526Z,88.50
2018-04-27T23:43:51.104Z,88.50
2018-04-27T23:46:27.690Z,88.70
2018-04-27T23:48:56.014Z,90.20
2018-04-27T23:51:23.555Z,90.20
2018-04-27T23:53:51.116Z,90.80
2018-04-27T23:56:18.658Z,90.80
2018-04-27T23:58:46.993Z,90.90
